sensor_id;sensor_type;location;lat;lon;timestamp;P1;durP1;ratioP1;P2;durP2;ratioP2
19739;SDS011;10027;51.066;13.768;2022-12-07T00:01:36;9.90;;;4.37;;
19739;SDS011;10027;51.066;13.768;2022-12-07T00:04:05;8.17;;;4.13;;
19739;SDS011;10027;51.066;13.768;2022-12-07T00:06:37;9.70;;;3.87;;
19739;SDS011;10027;51.066;13.768;2022-12-07T00:09:04;10.97;;;4.20;;
19739;SDS011;10027;51.066;13.768;2022-12-07T00:11:32;7.23;;;3.80;;
19739;SDS011;10027;51.066;13.768;2022-12-07T00:14:01;8.20;;;4.30;;
19739;SDS011;10027;51.066;13.768;2022-12-07T00:16:30;7.20;;;3.93;;
19739;SDS011;10027;51.066;13.768;2022-12-07T00:18:58;7.53;;;3.93;;
19739;SDS011;10027;51.066;13.768;2022-12-07T00:21:26;7.40;;;3.90;;
19739;SDS011;10027;51.066;13.768;2022-12-07T00:23:54;7.23;;;3.87;;
19739;SDS011;10027;51.066;13.768;2022-12-07T00:26:23;7.83;;;4.13;;
19739;SDS011;10027;51.066;13.768;2022-12-07T00:28:54;7.30;;;3.77;;
19739;SDS011;10027;51.066;13.768;2022-12-07T00:31:23;7.40;;;3.83;;
19739;SDS011;10027;51.066;13.768;2022-12-07T00:33:50;6.97;;;3.60;;
19739;SDS011;10027;51.066;13.768;2022-12-07T00:36:18;9.87;;;4.03;;
19739;SDS011;10027;51.066;13.768;2022-12-07T00:38:52;8.27;;;4.43;;
19739;SDS011;10027;51.066;13.768;2022-12-07T00:41:20;7.00;;;4.03;;
19739;SDS011;10027;51.066;13.768;2022-12-07T00:43:47;8.13;;;3.77;;
19739;SDS011;10027;51.066;13.768;2022-12-07T00:46:15;7.53;;;4.10;;
19739;SDS011;10027;51.066;13.768;2022-12-07T00:48:43;7.27;;;3.93;;
19739;SDS011;10027;51.066;13.768;2022-12-07T00:51:11;9.00;;;4.10;;
19739;SDS011;10027;51.066;13.768;2022-12-07T00:53:38;7.33;;;4.00;;
19739;SDS011;10027;51.066;13.768;2022-12-07T00:56:07;8.03;;;3.97;;
19739;SDS011;10027;51.066;13.768;2022-12-07T00:58:35;7.77;;;4.07;;
19739;SDS011;10027;51.066;13.768;2022-12-07T01:01:02;8.47;;;4.07;;
19739;SDS011;10027;51.066;13.768;2022-12-07T01:03:30;7.33;;;3.73;;
19739;SDS011;10027;51.066;13.768;2022-12-07T01:05:57;9.57;;;4.27;;
19739;SDS011;10027;51.066;13.768;2022-12-07T01:08:25;8.23;;;4.27;;
19739;SDS011;10027;51.066;13.768;2022-12-07T01:11:03;7.33;;;3.77;;
19739;SDS011;10027;51.066;13.768;2022-12-07T01:13:31;8.87;;;4.03;;
19739;SDS011;10027;51.066;13.768;2022-12-07T01:15:59;7.17;;;3.97;;
19739;SDS011;10027;51.066;13.768;2022-12-07T01:18:27;7.80;;;3.90;;
19739;SDS011;10027;51.066;13.768;2022-12-07T01:21:02;8.10;;;4.50;;
19739;SDS011;10027;51.066;13.768;2022-12-07T01:23:31;8.43;;;3.87;;
19739;SDS011;10027;51.066;13.768;2022-12-07T01:25:59;11.10;;;4.13;;
19739;SDS011;10027;51.066;13.768;2022-12-07T01:28:26;7.57;;;4.00;;
19739;SDS011;10027;51.066;13.768;2022-12-07T01:30:55;7.73;;;4.10;;
19739;SDS011;10027;51.066;13.768;2022-12-07T01:33:22;9.30;;;4.50;;
19739;SDS011;10027;51.066;13.768;2022-12-07T01:35:49;8.57;;;4.20;;
19739;SDS011;10027;51.066;13.768;2022-12-07T01:38:16;9.53;;;4.20;;
19739;SDS011;10027;51.066;13.768;2022-12-07T01:40:43;11.13;;;4.83;;
19739;SDS011;10027;51.066;13.768;2022-12-07T01:43:15;7.10;;;4.10;;
19739;SDS011;10027;51.066;13.768;2022-12-07T01:45:44;9.03;;;4.27;;
19739;SDS011;10027;51.066;13.768;2022-12-07T01:48:12;9.17;;;4.30;;
19739;SDS011;10027;51.066;13.768;2022-12-07T01:50:41;9.53;;;4.13;;
19739;SDS011;10027;51.066;13.768;2022-12-07T01:53:09;8.93;;;4.30;;
19739;SDS011;10027;51.066;13.768;2022-12-07T01:55:37;8.07;;;4.13;;
19739;SDS011;10027;51.066;13.768;2022-12-07T01:58:05;10.77;;;4.87;;
19739;SDS011;10027;51.066;13.768;2022-12-07T02:00:33;8.63;;;4.37;;
19739;SDS011;10027;51.066;13.768;2022-12-07T02:03:07;8.47;;;4.13;;
19739;SDS011;10027;51.066;13.768;2022-12-07T02:05:35;8.23;;;4.10;;
19739;SDS011;10027;51.066;13.768;2022-12-07T02:08:03;8.33;;;3.57;;
19739;SDS011;10027;51.066;13.768;2022-12-07T02:10:31;7.00;;;3.97;;
19739;SDS011;10027;51.066;13.768;2022-12-07T02:13:03;8.37;;;4.03;;
19739;SDS011;10027;51.066;13.768;2022-12-07T02:18:32;8.50;;;4.10;;
19739;SDS011;10027;51.066;13.768;2022-12-07T02:31:45;6.43;;;3.37;;
19739;SDS011;10027;51.066;13.768;2022-12-07T02:34:24;6.43;;;3.70;;
19739;SDS011;10027;51.066;13.768;2022-12-07T02:36:54;5.30;;;3.20;;
19739;SDS011;10027;51.066;13.768;2022-12-07T02:39:25;5.87;;;3.50;;
19739;SDS011;10027;51.066;13.768;2022-12-07T02:41:58;4.27;;;2.67;;
19739;SDS011;10027;51.066;13.768;2022-12-07T02:44:27;6.53;;;3.27;;
19739;SDS011;10027;51.066;13.768;2022-12-07T02:47:00;5.47;;;2.77;;
19739;SDS011;10027;51.066;13.768;2022-12-07T02:49:28;5.63;;;3.23;;
19739;SDS011;10027;51.066;13.768;2022-12-07T02:51:56;5.77;;;3.10;;
19739;SDS011;10027;51.066;13.768;2022-12-07T02:54:23;5.37;;;3.40;;
19739;SDS011;10027;51.066;13.768;2022-12-07T03:12:30;6.27;;;3.60;;
19739;SDS011;10027;51.066;13.768;2022-12-07T03:15:05;6.77;;;3.10;;
19739;SDS011;10027;51.066;13.768;2022-12-07T03:17:34;5.40;;;3.23;;
19739;SDS011;10027;51.066;13.768;2022-12-07T03:20:04;6.90;;;3.40;;
19739;SDS011;10027;51.066;13.768;2022-12-07T03:22:32;6.10;;;3.63;;
19739;SDS011;10027;51.066;13.768;2022-12-07T03:25:03;8.67;;;3.20;;
19739;SDS011;10027;51.066;13.768;2022-12-07T03:27:36;6.07;;;3.37;;
19739;SDS011;10027;51.066;13.768;2022-12-07T03:32:40;5.17;;;3.20;;
19739;SDS011;10027;51.066;13.768;2022-12-07T03:35:19;6.80;;;3.67;;
19739;SDS011;10027;51.066;13.768;2022-12-07T03:37:49;6.27;;;3.60;;
19739;SDS011;10027;51.066;13.768;2022-12-07T03:42:50;7.50;;;3.70;;
19739;SDS011;10027;51.066;13.768;2022-12-07T03:45:18;6.10;;;3.50;;
19739;SDS011;10027;51.066;13.768;2022-12-07T03:50:36;6.30;;;3.57;;
19739;SDS011;10027;51.066;13.768;2022-12-07T03:53:13;9.13;;;4.40;;
19739;SDS011;10027;51.066;13.768;2022-12-07T03:55:42;7.07;;;3.90;;
19739;SDS011;10027;51.066;13.768;2022-12-07T03:58:12;8.43;;;3.93;;
19739;SDS011;10027;51.066;13.768;2022-12-07T04:00:40;7.80;;;4.33;;
19739;SDS011;10027;51.066;13.768;2022-12-07T04:03:08;7.70;;;3.80;;
19739;SDS011;10027;51.066;13.768;2022-12-07T04:05:36;7.90;;;4.37;;
19739;SDS011;10027;51.066;13.768;2022-12-07T04:08:03;8.47;;;4.23;;
19739;SDS011;10027;51.066;13.768;2022-12-07T04:10:30;7.80;;;3.77;;
19739;SDS011;10027;51.066;13.768;2022-12-07T04:12:57;7.13;;;4.13;;
19739;SDS011;10027;51.066;13.768;2022-12-07T04:15:24;9.33;;;4.30;;
19739;SDS011;10027;51.066;13.768;2022-12-07T04:17:52;8.27;;;4.47;;
19739;SDS011;10027;51.066;13.768;2022-12-07T04:20:20;7.93;;;4.10;;
19739;SDS011;10027;51.066;13.768;2022-12-07T04:22:47;9.37;;;4.53;;
19739;SDS011;10027;51.066;13.768;2022-12-07T04:25:14;7.80;;;4.10;;
19739;SDS011;10027;51.066;13.768;2022-12-07T04:27:41;7.30;;;3.93;;
19739;SDS011;10027;51.066;13.768;2022-12-07T04:30:08;7.90;;;3.90;;
19739;SDS011;10027;51.066;13.768;2022-12-07T04:32:35;8.03;;;4.50;;
19739;SDS011;10027;51.066;13.768;2022-12-07T04:35:03;9.40;;;3.93;;
19739;SDS011;10027;51.066;13.768;2022-12-07T04:37:30;8.80;;;4.70;;
19739;SDS011;10027;51.066;13.768;2022-12-07T04:39:57;8.17;;;4.03;;
19739;SDS011;10027;51.066;13.768;2022-12-07T04:42:25;8.17;;;4.00;;
19739;SDS011;10027;51.066;13.768;2022-12-07T04:44:52;6.87;;;3.90;;
19739;SDS011;10027;51.066;13.768;2022-12-07T04:47:19;7.73;;;4.37;;
19739;SDS011;10027;51.066;13.768;2022-12-07T04:49:46;7.37;;;3.80;;
19739;SDS011;10027;51.066;13.768;2022-12-07T04:52:13;7.53;;;4.27;;
19739;SDS011;10027;51.066;13.768;2022-12-07T04:54:40;9.97;;;4.03;;
19739;SDS011;10027;51.066;13.768;2022-12-07T04:57:07;7.50;;;4.00;;
19739;SDS011;10027;51.066;13.768;2022-12-07T04:59:34;7.13;;;3.90;;
19739;SDS011;10027;51.066;13.768;2022-12-07T05:02:09;7.33;;;3.57;;
19739;SDS011;10027;51.066;13.768;2022-12-07T05:04:36;7.77;;;3.80;;
19739;SDS011;10027;51.066;13.768;2022-12-07T05:07:03;7.60;;;3.80;;
19739;SDS011;10027;51.066;13.768;2022-12-07T05:09:30;8.17;;;3.70;;
19739;SDS011;10027;51.066;13.768;2022-12-07T05:11:57;7.87;;;3.57;;
19739;SDS011;10027;51.066;13.768;2022-12-07T05:14:24;7.10;;;3.43;;
19739;SDS011;10027;51.066;13.768;2022-12-07T05:16:51;5.47;;;3.30;;
19739;SDS011;10027;51.066;13.768;2022-12-07T05:19:19;8.23;;;3.77;;
19739;SDS011;10027;51.066;13.768;2022-12-07T05:21:47;6.70;;;3.30;;
19739;SDS011;10027;51.066;13.768;2022-12-07T05:24:15;6.37;;;3.70;;
19739;SDS011;10027;51.066;13.768;2022-12-07T05:26:43;6.90;;;3.77;;
19739;SDS011;10027;51.066;13.768;2022-12-07T05:29:11;7.97;;;3.93;;
19739;SDS011;10027;51.066;13.768;2022-12-07T05:31:38;10.90;;;5.60;;
19739;SDS011;10027;51.066;13.768;2022-12-07T05:34:05;11.17;;;5.43;;
19739;SDS011;10027;51.066;13.768;2022-12-07T05:36:32;13.57;;;6.13;;
19739;SDS011;10027;51.066;13.768;2022-12-07T05:38:59;21.27;;;9.83;;
19739;SDS011;10027;51.066;13.768;2022-12-07T05:41:27;16.23;;;8.23;;
19739;SDS011;10027;51.066;13.768;2022-12-07T05:44:12;12.63;;;5.50;;
19739;SDS011;10027;51.066;13.768;2022-12-07T05:46:39;9.70;;;5.43;;
19739;SDS011;10027;51.066;13.768;2022-12-07T05:49:06;8.40;;;4.43;;
19739;SDS011;10027;51.066;13.768;2022-12-07T05:51:34;7.20;;;3.50;;
19739;SDS011;10027;51.066;13.768;2022-12-07T05:54:01;6.70;;;3.33;;
19739;SDS011;10027;51.066;13.768;2022-12-07T05:56:28;5.50;;;3.47;;
19739;SDS011;10027;51.066;13.768;2022-12-07T05:58:55;5.63;;;3.10;;
19739;SDS011;10027;51.066;13.768;2022-12-07T06:01:41;5.30;;;2.93;;
19739;SDS011;10027;51.066;13.768;2022-12-07T06:04:08;7.83;;;3.50;;
19739;SDS011;10027;51.066;13.768;2022-12-07T06:06:35;5.73;;;3.10;;
19739;SDS011;10027;51.066;13.768;2022-12-07T06:09:02;5.50;;;3.20;;
19739;SDS011;10027;51.066;13.768;2022-12-07T06:11:29;3.97;;;2.87;;
19739;SDS011;10027;51.066;13.768;2022-12-07T06:14:15;4.50;;;2.63;;
19739;SDS011;10027;51.066;13.768;2022-12-07T06:16:42;4.20;;;2.63;;
19739;SDS011;10027;51.066;13.768;2022-12-07T06:19:10;4.57;;;2.77;;
19739;SDS011;10027;51.066;13.768;2022-12-07T06:21:37;6.00;;;2.90;;
19739;SDS011;10027;51.066;13.768;2022-12-07T06:24:04;4.77;;;2.70;;
19739;SDS011;10027;51.066;13.768;2022-12-07T06:26:32;5.13;;;2.70;;
19739;SDS011;10027;51.066;13.768;2022-12-07T06:28:59;5.00;;;2.97;;
19739;SDS011;10027;51.066;13.768;2022-12-07T06:31:26;4.30;;;2.60;;
19739;SDS011;10027;51.066;13.768;2022-12-07T06:34:00;6.67;;;2.93;;
19739;SDS011;10027;51.066;13.768;2022-12-07T06:36:27;4.97;;;2.83;;
19739;SDS011;10027;51.066;13.768;2022-12-07T06:38:55;8.77;;;2.53;;
19739;SDS011;10027;51.066;13.768;2022-12-07T06:41:22;4.30;;;2.50;;
19739;SDS011;10027;51.066;13.768;2022-12-07T06:43:49;4.50;;;2.30;;
19739;SDS011;10027;51.066;13.768;2022-12-07T06:46:21;3.67;;;2.30;;
19739;SDS011;10027;51.066;13.768;2022-12-07T06:48:49;3.73;;;2.17;;
19739;SDS011;10027;51.066;13.768;2022-12-07T06:51:16;5.60;;;2.40;;
19739;SDS011;10027;51.066;13.768;2022-12-07T06:53:43;3.57;;;2.20;;
19739;SDS011;10027;51.066;13.768;2022-12-07T06:56:10;2.87;;;1.93;;
19739;SDS011;10027;51.066;13.768;2022-12-07T06:58:38;3.03;;;1.90;;
19739;SDS011;10027;51.066;13.768;2022-12-07T07:01:15;4.13;;;2.23;;
19739;SDS011;10027;51.066;13.768;2022-12-07T07:03:43;2.90;;;2.20;;
19739;SDS011;10027;51.066;13.768;2022-12-07T07:06:11;3.40;;;2.20;;
19739;SDS011;10027;51.066;13.768;2022-12-07T07:08:38;3.77;;;2.57;;
19739;SDS011;10027;51.066;13.768;2022-12-07T07:11:06;2.97;;;1.90;;
19739;SDS011;10027;51.066;13.768;2022-12-07T07:13:34;3.90;;;2.43;;
19739;SDS011;10027;51.066;13.768;2022-12-07T07:16:01;4.77;;;2.33;;
19739;SDS011;10027;51.066;13.768;2022-12-07T07:18:28;4.20;;;2.50;;
19739;SDS011;10027;51.066;13.768;2022-12-07T07:20:55;5.30;;;2.47;;
19739;SDS011;10027;51.066;13.768;2022-12-07T07:23:23;3.87;;;2.13;;
19739;SDS011;10027;51.066;13.768;2022-12-07T07:25:50;4.73;;;2.40;;
19739;SDS011;10027;51.066;13.768;2022-12-07T07:28:17;4.70;;;2.70;;
19739;SDS011;10027;51.066;13.768;2022-12-07T07:30:44;5.10;;;2.67;;
19739;SDS011;10027;51.066;13.768;2022-12-07T07:33:11;3.83;;;2.67;;
19739;SDS011;10027;51.066;13.768;2022-12-07T07:35:39;4.63;;;2.60;;
19739;SDS011;10027;51.066;13.768;2022-12-07T07:38:06;4.47;;;2.53;;
19739;SDS011;10027;51.066;13.768;2022-12-07T07:40:34;5.97;;;3.13;;
19739;SDS011;10027;51.066;13.768;2022-12-07T07:43:01;4.00;;;2.53;;
19739;SDS011;10027;51.066;13.768;2022-12-07T07:45:28;6.73;;;2.73;;
19739;SDS011;10027;51.066;13.768;2022-12-07T07:47:55;3.03;;;2.23;;
19739;SDS011;10027;51.066;13.768;2022-12-07T07:50:22;4.60;;;2.67;;
19739;SDS011;10027;51.066;13.768;2022-12-07T07:52:50;4.87;;;2.70;;
19739;SDS011;10027;51.066;13.768;2022-12-07T07:55:18;4.17;;;2.53;;
19739;SDS011;10027;51.066;13.768;2022-12-07T07:57:45;4.47;;;2.57;;
19739;SDS011;10027;51.066;13.768;2022-12-07T08:00:18;3.87;;;2.30;;
19739;SDS011;10027;51.066;13.768;2022-12-07T08:02:51;4.00;;;2.60;;
19739;SDS011;10027;51.066;13.768;2022-12-07T08:05:19;4.70;;;2.60;;
19739;SDS011;10027;51.066;13.768;2022-12-07T08:07:46;3.93;;;2.60;;
19739;SDS011;10027;51.066;13.768;2022-12-07T08:10:13;4.60;;;2.70;;
19739;SDS011;10027;51.066;13.768;2022-12-07T08:12:41;5.73;;;2.90;;
19739;SDS011;10027;51.066;13.768;2022-12-07T08:15:29;5.60;;;3.40;;
19739;SDS011;10027;51.066;13.768;2022-12-07T08:17:57;4.67;;;3.27;;
19739;SDS011;10027;51.066;13.768;2022-12-07T08:20:24;5.23;;;3.37;;
19739;SDS011;10027;51.066;13.768;2022-12-07T08:22:52;5.13;;;3.30;;
19739;SDS011;10027;51.066;13.768;2022-12-07T08:25:19;7.07;;;3.90;;
19739;SDS011;10027;51.066;13.768;2022-12-07T08:27:48;7.00;;;3.47;;
19739;SDS011;10027;51.066;13.768;2022-12-07T08:30:15;5.63;;;3.50;;
19739;SDS011;10027;51.066;13.768;2022-12-07T08:32:43;6.73;;;3.80;;
19739;SDS011;10027;51.066;13.768;2022-12-07T08:35:11;8.93;;;3.73;;
19739;SDS011;10027;51.066;13.768;2022-12-07T08:37:39;8.90;;;3.57;;
19739;SDS011;10027;51.066;13.768;2022-12-07T08:40:07;6.57;;;4.00;;
19739;SDS011;10027;51.066;13.768;2022-12-07T08:42:34;6.03;;;3.43;;
19739;SDS011;10027;51.066;13.768;2022-12-07T08:45:07;7.90;;;3.90;;
19739;SDS011;10027;51.066;13.768;2022-12-07T08:47:35;6.30;;;3.73;;
19739;SDS011;10027;51.066;13.768;2022-12-07T08:50:03;5.43;;;3.80;;
19739;SDS011;10027;51.066;13.768;2022-12-07T08:52:30;8.13;;;3.60;;
19739;SDS011;10027;51.066;13.768;2022-12-07T08:54:58;6.17;;;3.77;;
19739;SDS011;10027;51.066;13.768;2022-12-07T08:57:26;7.23;;;4.07;;
19739;SDS011;10027;51.066;13.768;2022-12-07T08:59:54;6.63;;;3.70;;
19739;SDS011;10027;51.066;13.768;2022-12-07T09:02:21;6.40;;;3.57;;
19739;SDS011;10027;51.066;13.768;2022-12-07T09:04:48;6.63;;;3.40;;
19739;SDS011;10027;51.066;13.768;2022-12-07T09:07:15;7.20;;;3.67;;
19739;SDS011;10027;51.066;13.768;2022-12-07T09:09:42;6.00;;;3.50;;
19739;SDS011;10027;51.066;13.768;2022-12-07T09:12:09;6.83;;;3.37;;
19739;SDS011;10027;51.066;13.768;2022-12-07T09:14:37;6.57;;;3.07;;
19739;SDS011;10027;51.066;13.768;2022-12-07T09:17:05;8.07;;;3.40;;
19739;SDS011;10027;51.066;13.768;2022-12-07T09:19:32;5.03;;;3.07;;
19739;SDS011;10027;51.066;13.768;2022-12-07T09:21:59;5.30;;;3.30;;
19739;SDS011;10027;51.066;13.768;2022-12-07T09:24:26;4.13;;;3.10;;
19739;SDS011;10027;51.066;13.768;2022-12-07T09:26:53;7.83;;;3.33;;
19739;SDS011;10027;51.066;13.768;2022-12-07T09:29:20;6.10;;;3.10;;
19739;SDS011;10027;51.066;13.768;2022-12-07T09:31:47;6.20;;;3.40;;
19739;SDS011;10027;51.066;13.768;2022-12-07T09:34:15;4.67;;;2.90;;
19739;SDS011;10027;51.066;13.768;2022-12-07T09:36:42;5.90;;;3.10;;
19739;SDS011;10027;51.066;13.768;2022-12-07T09:39:09;4.73;;;3.00;;
19739;SDS011;10027;51.066;13.768;2022-12-07T09:41:40;8.00;;;3.20;;
19739;SDS011;10027;51.066;13.768;2022-12-07T09:44:12;4.93;;;3.00;;
19739;SDS011;10027;51.066;13.768;2022-12-07T09:46:40;5.17;;;3.07;;
19739;SDS011;10027;51.066;13.768;2022-12-07T09:49:15;5.50;;;3.37;;
19739;SDS011;10027;51.066;13.768;2022-12-07T09:51:43;6.90;;;3.40;;
19739;SDS011;10027;51.066;13.768;2022-12-07T09:54:14;4.60;;;2.67;;
19739;SDS011;10027;51.066;13.768;2022-12-07T09:56:42;10.90;;;2.93;;
19739;SDS011;10027;51.066;13.768;2022-12-07T09:59:12;5.43;;;3.00;;
19739;SDS011;10027;51.066;13.768;2022-12-07T10:01:40;7.33;;;3.47;;
19739;SDS011;10027;51.066;13.768;2022-12-07T10:06:39;5.53;;;3.17;;
19739;SDS011;10027;51.066;13.768;2022-12-07T10:09:10;5.47;;;3.00;;
19739;SDS011;10027;51.066;13.768;2022-12-07T10:11:57;4.60;;;3.10;;
19739;SDS011;10027;51.066;13.768;2022-12-07T10:14:24;6.40;;;2.97;;
19739;SDS011;10027;51.066;13.768;2022-12-07T10:20:15;6.17;;;3.30;;
19739;SDS011;10027;51.066;13.768;2022-12-07T10:22:59;6.03;;;3.37;;
19739;SDS011;10027;51.066;13.768;2022-12-07T10:25:28;4.93;;;3.20;;
19739;SDS011;10027;51.066;13.768;2022-12-07T10:27:57;5.60;;;3.10;;
19739;SDS011;10027;51.066;13.768;2022-12-07T10:30:24;6.87;;;3.10;;
19739;SDS011;10027;51.066;13.768;2022-12-07T10:32:51;6.20;;;3.20;;
19739;SDS011;10027;51.066;13.768;2022-12-07T10:35:20;4.47;;;2.97;;
19739;SDS011;10027;51.066;13.768;2022-12-07T10:37:47;8.80;;;3.30;;
19739;SDS011;10027;51.066;13.768;2022-12-07T10:43:04;6.37;;;3.27;;
19739;SDS011;10027;51.066;13.768;2022-12-07T10:45:32;4.97;;;3.10;;
19739;SDS011;10027;51.066;13.768;2022-12-07T10:48:27;6.00;;;3.20;;
19739;SDS011;10027;51.066;13.768;2022-12-07T10:56:11;6.83;;;3.57;;
19739;SDS011;10027;51.066;13.768;2022-12-07T11:06:14;5.13;;;3.50;;
19739;SDS011;10027;51.066;13.768;2022-12-07T11:09:03;6.50;;;3.50;;
19739;SDS011;10027;51.066;13.768;2022-12-07T11:11:38;5.97;;;3.20;;
19739;SDS011;10027;51.066;13.768;2022-12-07T11:14:25;5.60;;;3.30;;
19739;SDS011;10027;51.066;13.768;2022-12-07T11:16:56;6.27;;;3.40;;
19739;SDS011;10027;51.066;13.768;2022-12-07T11:22:00;5.20;;;3.33;;
19739;SDS011;10027;51.066;13.768;2022-12-07T11:24:40;5.87;;;3.80;;
19739;SDS011;10027;51.066;13.768;2022-12-07T11:35:03;5.33;;;2.90;;
19739;SDS011;10027;51.066;13.768;2022-12-07T11:37:34;7.10;;;3.10;;
19739;SDS011;10027;51.066;13.768;2022-12-07T11:40:08;6.50;;;3.57;;
19739;SDS011;10027;51.066;13.768;2022-12-07T11:42:41;5.00;;;3.23;;
19739;SDS011;10027;51.066;13.768;2022-12-07T11:50:38;4.13;;;2.60;;
19739;SDS011;10027;51.066;13.768;2022-12-07T11:55:48;6.03;;;3.47;;
19739;SDS011;10027;51.066;13.768;2022-12-07T12:03:47;4.77;;;3.37;;
19739;SDS011;10027;51.066;13.768;2022-12-07T12:06:18;5.77;;;3.87;;
19739;SDS011;10027;51.066;13.768;2022-12-07T12:08:47;7.23;;;3.90;;
19739;SDS011;10027;51.066;13.768;2022-12-07T12:11:50;5.93;;;3.93;;
19739;SDS011;10027;51.066;13.768;2022-12-07T12:19:55;7.90;;;4.57;;
19739;SDS011;10027;51.066;13.768;2022-12-07T12:22:28;8.20;;;4.37;;
19739;SDS011;10027;51.066;13.768;2022-12-07T12:24:59;8.13;;;4.30;;
19739;SDS011;10027;51.066;13.768;2022-12-07T12:27:30;7.60;;;4.57;;
19739;SDS011;10027;51.066;13.768;2022-12-07T12:29:59;7.47;;;4.43;;
19739;SDS011;10027;51.066;13.768;2022-12-07T12:32:34;6.63;;;4.10;;
19739;SDS011;10027;51.066;13.768;2022-12-07T12:35:20;7.20;;;4.30;;
19739;SDS011;10027;51.066;13.768;2022-12-07T12:37:47;9.37;;;4.27;;
19739;SDS011;10027;51.066;13.768;2022-12-07T12:42:49;8.17;;;4.77;;
19739;SDS011;10027;51.066;13.768;2022-12-07T12:47:57;5.20;;;3.40;;
19739;SDS011;10027;51.066;13.768;2022-12-07T12:50:28;4.17;;;2.40;;
19739;SDS011;10027;51.066;13.768;2022-12-07T13:00:48;3.07;;;1.80;;
19739;SDS011;10027;51.066;13.768;2022-12-07T13:03:35;2.77;;;1.70;;
19739;SDS011;10027;51.066;13.768;2022-12-07T13:08:48;1.33;;;1.20;;
19739;SDS011;10027;51.066;13.768;2022-12-07T13:11:19;1.70;;;1.00;;
19739;SDS011;10027;51.066;13.768;2022-12-07T13:13:47;2.10;;;0.80;;
19739;SDS011;10027;51.066;13.768;2022-12-07T13:18:41;1.17;;;0.90;;
19739;SDS011;10027;51.066;13.768;2022-12-07T13:23:47;1.90;;;1.30;;
19739;SDS011;10027;51.066;13.768;2022-12-07T13:26:36;1.80;;;1.10;;
19739;SDS011;10027;51.066;13.768;2022-12-07T13:36:52;1.90;;;1.40;;
19739;SDS011;10027;51.066;13.768;2022-12-07T13:39:20;2.43;;;1.10;;
19739;SDS011;10027;51.066;13.768;2022-12-07T13:41:50;4.63;;;1.70;;
19739;SDS011;10027;51.066;13.768;2022-12-07T13:44:18;2.70;;;1.50;;
19739;SDS011;10027;51.066;13.768;2022-12-07T13:47:05;2.33;;;1.40;;
19739;SDS011;10027;51.066;13.768;2022-12-07T13:49:37;2.00;;;1.63;;
19739;SDS011;10027;51.066;13.768;2022-12-07T13:52:14;2.43;;;1.70;;
19739;SDS011;10027;51.066;13.768;2022-12-07T13:54:46;3.27;;;1.90;;
19739;SDS011;10027;51.066;13.768;2022-12-07T13:57:15;2.90;;;1.80;;
19739;SDS011;10027;51.066;13.768;2022-12-07T13:59:43;3.70;;;1.87;;
19739;SDS011;10027;51.066;13.768;2022-12-07T14:02:21;2.60;;;1.90;;
19739;SDS011;10027;51.066;13.768;2022-12-07T14:04:49;2.83;;;1.90;;
19739;SDS011;10027;51.066;13.768;2022-12-07T14:12:21;3.03;;;2.20;;
19739;SDS011;10027;51.066;13.768;2022-12-07T14:14:49;4.77;;;2.37;;
19739;SDS011;10027;51.066;13.768;2022-12-07T14:17:19;4.40;;;2.40;;
19739;SDS011;10027;51.066;13.768;2022-12-07T14:19:50;4.27;;;2.53;;
19739;SDS011;10027;51.066;13.768;2022-12-07T14:24:45;4.10;;;2.40;;
19739;SDS011;10027;51.066;13.768;2022-12-07T14:27:22;5.20;;;2.73;;
19739;SDS011;10027;51.066;13.768;2022-12-07T14:29:51;5.50;;;3.17;;
19739;SDS011;10027;51.066;13.768;2022-12-07T14:32:25;7.47;;;3.13;;
19739;SDS011;10027;51.066;13.768;2022-12-07T14:35:07;7.27;;;3.27;;
19739;SDS011;10027;51.066;13.768;2022-12-07T14:37:36;5.23;;;3.30;;
19739;SDS011;10027;51.066;13.768;2022-12-07T14:40:04;6.73;;;3.37;;
19739;SDS011;10027;51.066;13.768;2022-12-07T14:42:32;9.47;;;3.40;;
19739;SDS011;10027;51.066;13.768;2022-12-07T14:45:00;5.57;;;3.27;;
19739;SDS011;10027;51.066;13.768;2022-12-07T14:47:27;5.17;;;3.47;;
19739;SDS011;10027;51.066;13.768;2022-12-07T14:50:15;5.73;;;3.30;;
19739;SDS011;10027;51.066;13.768;2022-12-07T14:52:43;6.47;;;3.40;;
19739;SDS011;10027;51.066;13.768;2022-12-07T14:55:31;4.47;;;3.17;;
19739;SDS011;10027;51.066;13.768;2022-12-07T14:57:58;7.67;;;3.30;;
19739;SDS011;10027;51.066;13.768;2022-12-07T15:00:26;7.80;;;3.50;;
19739;SDS011;10027;51.066;13.768;2022-12-07T15:02:54;5.13;;;3.40;;
19739;SDS011;10027;51.066;13.768;2022-12-07T15:05:22;8.37;;;3.87;;
19739;SDS011;10027;51.066;13.768;2022-12-07T15:07:49;7.40;;;4.13;;
19739;SDS011;10027;51.066;13.768;2022-12-07T15:10:20;7.43;;;4.10;;
19739;SDS011;10027;51.066;13.768;2022-12-07T15:12:50;8.40;;;4.10;;
19739;SDS011;10027;51.066;13.768;2022-12-07T15:15:17;6.70;;;3.80;;
19739;SDS011;10027;51.066;13.768;2022-12-07T15:17:44;5.57;;;2.90;;
19739;SDS011;10027;51.066;13.768;2022-12-07T15:20:12;7.43;;;3.67;;
19739;SDS011;10027;51.066;13.768;2022-12-07T15:22:40;9.13;;;3.60;;
19739;SDS011;10027;51.066;13.768;2022-12-07T15:25:07;8.53;;;2.90;;
19739;SDS011;10027;51.066;13.768;2022-12-07T15:27:34;6.57;;;2.83;;
19739;SDS011;10027;51.066;13.768;2022-12-07T15:30:01;3.13;;;2.33;;
19739;SDS011;10027;51.066;13.768;2022-12-07T15:32:29;3.77;;;2.30;;
19739;SDS011;10027;51.066;13.768;2022-12-07T15:34:56;4.17;;;2.23;;
19739;SDS011;10027;51.066;13.768;2022-12-07T15:37:23;4.10;;;2.07;;
19739;SDS011;10027;51.066;13.768;2022-12-07T15:39:50;4.83;;;2.47;;
19739;SDS011;10027;51.066;13.768;2022-12-07T15:42:17;3.70;;;2.00;;
19739;SDS011;10027;51.066;13.768;2022-12-07T15:44:44;4.13;;;2.03;;
19739;SDS011;10027;51.066;13.768;2022-12-07T15:47:35;3.70;;;2.80;;
19739;SDS011;10027;51.066;13.768;2022-12-07T15:50:22;7.00;;;3.10;;
19739;SDS011;10027;51.066;13.768;2022-12-07T15:52:50;4.77;;;3.00;;
19739;SDS011;10027;51.066;13.768;2022-12-07T15:55:17;5.43;;;3.13;;
19739;SDS011;10027;51.066;13.768;2022-12-07T15:57:44;4.83;;;2.80;;
19739;SDS011;10027;51.066;13.768;2022-12-07T16:00:11;5.77;;;2.97;;
19739;SDS011;10027;51.066;13.768;2022-12-07T16:02:38;3.63;;;2.83;;
19739;SDS011;10027;51.066;13.768;2022-12-07T16:05:05;4.27;;;2.50;;
19739;SDS011;10027;51.066;13.768;2022-12-07T16:07:33;5.63;;;2.70;;
19739;SDS011;10027;51.066;13.768;2022-12-07T16:10:00;4.73;;;2.80;;
19739;SDS011;10027;51.066;13.768;2022-12-07T16:12:27;4.80;;;2.80;;
19739;SDS011;10027;51.066;13.768;2022-12-07T16:14:54;3.97;;;3.10;;
19739;SDS011;10027;51.066;13.768;2022-12-07T16:17:21;3.80;;;2.70;;
19739;SDS011;10027;51.066;13.768;2022-12-07T16:19:48;5.10;;;3.40;;
19739;SDS011;10027;51.066;13.768;2022-12-07T16:22:15;5.23;;;3.47;;
19739;SDS011;10027;51.066;13.768;2022-12-07T16:24:42;5.50;;;3.40;;
19739;SDS011;10027;51.066;13.768;2022-12-07T16:27:09;5.93;;;3.13;;
19739;SDS011;10027;51.066;13.768;2022-12-07T16:29:37;6.97;;;3.50;;
19739;SDS011;10027;51.066;13.768;2022-12-07T16:32:04;8.30;;;4.17;;
19739;SDS011;10027;51.066;13.768;2022-12-07T16:34:31;8.37;;;3.90;;
19739;SDS011;10027;51.066;13.768;2022-12-07T16:36:58;5.07;;;3.40;;
19739;SDS011;10027;51.066;13.768;2022-12-07T16:39:30;5.90;;;3.80;;
19739;SDS011;10027;51.066;13.768;2022-12-07T16:41:57;7.87;;;3.83;;
19739;SDS011;10027;51.066;13.768;2022-12-07T16:44:24;5.30;;;3.53;;
19739;SDS011;10027;51.066;13.768;2022-12-07T16:46:52;7.47;;;3.43;;
19739;SDS011;10027;51.066;13.768;2022-12-07T16:49:19;7.00;;;3.60;;
19739;SDS011;10027;51.066;13.768;2022-12-07T16:51:49;6.40;;;3.57;;